createdAt,value
2022-08-17T00:00:42.987Z,98969.31
2022-08-17T00:03:06.090Z,98971.50
2022-08-17T00:05:39.055Z,98969.22
2022-08-17T00:08:07.247Z,98978.44
2022-08-17T00:10:36.264Z,98969.13
2022-08-17T00:13:07.405Z,98958.09
2022-08-17T00:15:35.669Z,98962.13
2022-08-17T00:18:04.182Z,98966.19
2022-08-17T00:20:53.951Z,98960.75
2022-08-17T00:23:22.407Z,98966.41
2022-08-17T00:25:51.385Z,98962.25
2022-08-17T00:28:22.229Z,98958.94
2022-08-17T00:30:53.584Z,98966.72
2022-08-17T00:33:24.057Z,98966.72
2022-08-17T00:35:53.860Z,98962.16
2022-08-17T00:38:22.564Z,98964.41
2022-08-17T00:40:55.796Z,98963.06
2022-08-17T00:43:31.788Z,98958.19
2022-08-17T00:46:01.386Z,98966.47
2022-08-17T00:48:30.843Z,98956.53
2022-08-17T00:51:17.735Z,98959.19
2022-08-17T00:53:49.548Z,98958.28
2022-08-17T00:56:22.055Z,98953.78
2022-08-17T00:58:50.784Z,98964.97
2022-08-17T01:01:21.467Z,98961.81
2022-08-17T01:03:51.984Z,98960.28
2022-08-17T01:06:22.529Z,98957.94
2022-08-17T01:08:52.207Z,98964.22
2022-08-17T01:11:26.230Z,98964.97
2022-08-17T01:13:54.707Z,98959.69
2022-08-17T01:16:25.606Z,98974.91
2022-08-17T01:18:56.949Z,98962.00
2022-08-17T01:21:31.946Z,98974.31
2022-08-17T01:24:01.522Z,98974.81
2022-08-17T01:26:31.665Z,98965.88
2022-08-17T01:29:00.106Z,98965.72
2022-08-17T01:31:33.396Z,98975.91
2022-08-17T01:34:03.447Z,98975.13
2022-08-17T01:36:32.472Z,98975.31
2022-08-17T01:39:02.124Z,98977.59
2022-08-17T01:41:30.503Z,98974.16
2022-08-17T01:49:01.500Z,98983.31
2022-08-17T01:51:32.809Z,98987.72
2022-08-17T01:54:05.543Z,98980.06
2022-08-17T01:56:35.587Z,98989.44
2022-08-17T01:59:04.133Z,98984.16
2022-08-17T02:01:33.969Z,98991.66
2022-08-17T02:04:03.405Z,98989.63
2022-08-17T02:06:45.337Z,98990.13
2022-08-17T02:09:25.713Z,98989.75
2022-08-17T02:11:54.606Z,98983.84
2022-08-17T02:14:23.229Z,98988.38
2022-08-17T02:16:51.423Z,98980.78
2022-08-17T02:19:22.003Z,98982.66
2022-08-17T02:21:53.424Z,98978.09
2022-08-17T02:24:58.499Z,98981.25
2022-08-17T02:27:14.187Z,98987.53
2022-08-17T02:29:42.379Z,98980.22
2022-08-17T02:32:27.246Z,98987.28
2022-08-17T02:34:57.270Z,98986.16
2022-08-17T02:37:25.933Z,98975.28
2022-08-17T02:39:57.135Z,98979.47
2022-08-17T02:42:28.883Z,98983.91
2022-08-17T02:44:57.001Z,98982.50
2022-08-17T02:47:25.440Z,98983.38
2022-08-17T02:49:54.477Z,98981.19
2022-08-17T02:52:43.349Z,98986.78
2022-08-17T02:55:17.911Z,98987.50
2022-08-17T02:57:46.375Z,98979.66
2022-08-17T03:00:17.824Z,98976.16
2022-08-17T03:02:46.739Z,98982.84
2022-08-17T03:05:17.493Z,98982.63
2022-08-17T03:07:45.889Z,98981.53
2022-08-17T03:10:16.607Z,98980.75
2022-08-17T03:12:47.746Z,98991.03
2022-08-17T03:15:18.753Z,98993.47
2022-08-17T03:17:47.197Z,98992.16
2022-08-17T03:20:16.167Z,98987.63
2022-08-17T03:22:47.940Z,98992.31
2022-08-17T03:25:25.016Z,98995.38
2022-08-17T03:27:53.207Z,98999.44
2022-08-17T03:30:22.597Z,98987.75
2022-08-17T03:32:52.529Z,98991.50
2022-08-17T03:35:23.817Z,98993.41
2022-08-17T03:38:00.238Z,98993.63
2022-08-17T03:40:36.954Z,98993.00
2022-08-17T03:43:23.174Z,98988.41
2022-08-17T03:46:27.076Z,98994.75
2022-08-17T03:49:15.063Z,98997.03
2022-08-17T03:52:01.067Z,98992.75
2022-08-17T03:54:46.594Z,98991.00
2022-08-17T03:57:16.422Z,98988.91
2022-08-17T03:59:45.289Z,99002.75
2022-08-17T04:02:17.507Z,98993.88
2022-08-17T04:04:45.771Z,98997.41
2022-08-17T04:07:14.046Z,98999.28
2022-08-17T04:09:43.016Z,98998.47
2022-08-17T04:12:11.267Z,98999.66
2022-08-17T04:14:52.568Z,99000.16
2022-08-17T04:17:23.721Z,99007.94
2022-08-17T04:19:51.870Z,99009.03
2022-08-17T04:22:30.482Z,99012.19
2022-08-17T04:25:03.299Z,99010.03
2022-08-17T04:27:31.964Z,99013.84
2022-08-17T04:30:01.627Z,99006.94
2022-08-17T04:33:03.605Z,99005.22
2022-08-17T04:35:22.912Z,99009.00
2022-08-17T04:37:52.273Z,99012.44
2022-08-17T04:40:41.270Z,99007.91
2022-08-17T04:43:11.454Z,99011.81
2022-08-17T04:45:55.303Z,99011.09
2022-08-17T04:48:29.954Z,99016.69
2022-08-17T04:51:08.393Z,99013.25
2022-08-17T04:53:37.122Z,99022.84
2022-08-17T04:56:06.026Z,99018.81
2022-08-17T04:58:34.499Z,99022.00
2022-08-17T05:01:04.451Z,99023.06
2022-08-17T05:03:32.799Z,99015.31
2022-08-17T05:06:01.119Z,99022.69
2022-08-17T05:08:29.521Z,99015.47
2022-08-17T05:10:58.058Z,99019.28
2022-08-17T05:13:29.937Z,99026.25
2022-08-17T05:16:01.225Z,99025.75
2022-08-17T05:18:31.372Z,99022.91
2022-08-17T05:21:00.226Z,99030.59
2022-08-17T05:23:37.830Z,99024.06
2022-08-17T05:26:11.682Z,99024.00
2022-08-17T05:28:54.318Z,99023.28
2022-08-17T05:31:22.437Z,99025.47
2022-08-17T05:33:52.483Z,99020.59
2022-08-17T05:36:42.367Z,99023.56
2022-08-17T05:39:15.604Z,99028.19
2022-08-17T05:41:47.446Z,99022.13
2022-08-17T05:44:15.658Z,99028.06
2022-08-17T05:46:49.144Z,99030.91
2022-08-17T05:49:20.729Z,99037.09
2022-08-17T05:52:20.079Z,99025.94
2022-08-17T05:55:09.245Z,99027.16
2022-08-17T05:57:53.833Z,99028.31
2022-08-17T06:00:30.842Z,99027.56
2022-08-17T06:03:13.742Z,99027.25
2022-08-17T06:05:56.267Z,99022.63
2022-08-17T06:08:28.286Z,99026.78
2022-08-17T06:11:04.305Z,99027.50
2022-08-17T06:13:45.794Z,99020.97
2022-08-17T06:16:33.611Z,99021.41
2022-08-17T06:19:09.158Z,99028.34
2022-08-17T06:21:43.948Z,99030.25
2022-08-17T06:24:25.024Z,99030.25
2022-08-17T06:26:56.338Z,99024.94
2022-08-17T06:29:33.535Z,99027.16
2022-08-17T06:32:02.553Z,99028.16
2022-08-17T06:34:31.174Z,99028.72
2022-08-17T06:37:09.245Z,99036.78
2022-08-17T06:39:45.099Z,99036.28
2022-08-17T06:43:00.895Z,99041.06
2022-08-17T06:45:15.884Z,99037.41
2022-08-17T06:47:47.587Z,99035.47
2022-08-17T06:50:22.348Z,99037.13
2022-08-17T06:53:00.349Z,99036.06
2022-08-17T06:55:37.939Z,99040.19
2022-08-17T06:58:16.260Z,99038.03
2022-08-17T07:00:47.270Z,99035.69
2022-08-17T07:03:21.937Z,99045.66
2022-08-17T07:05:53.257Z,99035.75
2022-08-17T07:08:35.272Z,99042.78
2022-08-17T07:11:07.217Z,99040.31
2022-08-17T07:13:49.285Z,99044.44
2022-08-17T07:16:33.609Z,99041.34
2022-08-17T07:19:07.420Z,99038.63
2022-08-17T07:21:46.094Z,99044.16
2022-08-17T07:24:33.237Z,99035.38
2022-08-17T07:27:07.620Z,99041.41
2022-08-17T07:29:40.273Z,99042.78
2022-08-17T07:32:09.461Z,99046.13
2022-08-17T07:35:10.777Z,99046.03
2022-08-17T07:37:41.081Z,99037.19
2022-08-17T07:40:33.549Z,99043.16
2022-08-17T07:43:22.174Z,99045.38
2022-08-17T07:46:12.598Z,99044.91
2022-08-17T07:48:44.431Z,99045.25
2022-08-17T07:51:18.625Z,99044.81
2022-08-17T07:53:48.204Z,99042.06
2022-08-17T07:56:37.917Z,99047.19
2022-08-17T07:59:12.538Z,99044.78
2022-08-17T08:02:01.261Z,99049.16
2022-08-17T08:07:26.859Z,99041.19
2022-08-17T08:10:04.092Z,99037.72
2022-08-17T08:12:37.021Z,99040.22
2022-08-17T08:15:11.482Z,99044.91
2022-08-17T08:17:48.562Z,99037.00
2022-08-17T08:20:50.864Z,99029.84
2022-08-17T08:23:14.477Z,99034.22
2022-08-17T08:25:52.211Z,99040.91
2022-08-17T08:28:30.632Z,99041.75
2022-08-17T08:31:06.732Z,99032.50
2022-08-17T08:33:48.567Z,99027.56
2022-08-17T08:36:56.848Z,99031.19
2022-08-17T08:39:21.423Z,99035.38
2022-08-17T08:41:58.985Z,99035.69
2022-08-17T08:44:59.770Z,99032.72
2022-08-17T08:47:39.790Z,99035.19
2022-08-17T08:50:30.133Z,99033.00
2022-08-17T08:53:16.244Z,99031.38
2022-08-17T08:55:53.664Z,99027.31
2022-08-17T08:58:31.616Z,99039.72
2022-08-17T09:01:22.557Z,99046.63
2022-08-17T09:04:26.186Z,99043.88
2022-08-17T09:07:08.931Z,99049.69
2022-08-17T09:09:44.274Z,99037.34
2022-08-17T09:12:17.444Z,99039.84
2022-08-17T09:14:59.570Z,99034.59
2022-08-17T09:17:36.148Z,99042.28
2022-08-17T09:20:11.379Z,99043.66
2022-08-17T09:22:59.977Z,99043.09
2022-08-17T09:25:31.216Z,99042.84
2022-08-17T09:28:03.800Z,99040.66
2022-08-17T09:30:41.189Z,99039.75
2022-08-17T09:33:11.831Z,99044.09
2022-08-17T09:35:44.672Z,99046.84
2022-08-17T09:38:21.612Z,99044.94
2022-08-17T09:40:56.882Z,99043.47
2022-08-17T09:43:36.010Z,99037.38
2022-08-17T09:46:09.611Z,99037.59
2022-08-17T09:48:52.006Z,99024.38
2022-08-17T09:51:25.050Z,99028.19
2022-08-17T09:53:53.284Z,99016.59
2022-08-17T09:56:36.111Z,99028.53
2022-08-17T09:59:17.253Z,99022.94
2022-08-17T10:01:50.647Z,99019.88
2022-08-17T10:04:30.827Z,99024.94
2022-08-17T10:07:06.135Z,99026.47
2022-08-17T10:09:42.634Z,99012.38
2022-08-17T10:12:20.596Z,99017.97
2022-08-17T10:15:08.237Z,99019.25
2022-08-17T10:17:46.148Z,99016.66
2022-08-17T10:20:18.980Z,99019.03
2022-08-17T10:23:09.110Z,99015.41
2022-08-17T10:26:08.670Z,99010.06
2022-08-17T10:28:41.048Z,99008.84
2022-08-17T10:31:34.361Z,98997.22
2022-08-17T10:34:19.350Z,99002.47
2022-08-17T10:36:56.050Z,99005.19
2022-08-17T10:39:32.137Z,99000.50
2022-08-17T10:42:32.453Z,98996.91
2022-08-17T10:45:05.404Z,98995.31
2022-08-17T10:48:04.300Z,98999.66
2022-08-17T10:51:00.967Z,98990.13
2022-08-17T10:54:02.380Z,98997.31
2022-08-17T10:56:50.515Z,98993.88
2022-08-17T10:59:52.502Z,98990.16
2022-08-17T11:02:31.659Z,98976.50
2022-08-17T11:05:22.311Z,98976.78
2022-08-17T11:08:05.461Z,98979.50
2022-08-17T11:10:56.751Z,98978.56
2022-08-17T11:13:36.057Z,98969.03
2022-08-17T11:16:19.121Z,98977.09
2022-08-17T11:19:13.530Z,98966.81
2022-08-17T11:22:12.902Z,98978.16
2022-08-17T11:24:48.496Z,98972.47
2022-08-17T11:27:28.068Z,98970.78
2022-08-17T11:30:02.165Z,98962.00
2022-08-17T11:32:37.405Z,98958.91
2022-08-17T11:35:22.258Z,98958.09
2022-08-17T11:38:01.102Z,98959.97
2022-08-17T11:40:41.228Z,98961.22
2022-08-17T11:43:44.555Z,98958.47
2022-08-17T11:46:21.703Z,98964.59
2022-08-17T11:49:16.954Z,98947.47
2022-08-17T11:52:13.024Z,98940.50
2022-08-17T11:54:45.259Z,98937.72
2022-08-17T11:58:01.828Z,98938.34
2022-08-17T12:01:00.033Z,98930.13
2022-08-17T12:03:57.987Z,98939.44
2022-08-17T12:06:33.572Z,98928.56
2022-08-17T12:09:08.092Z,98933.09
2022-08-17T12:11:55.184Z,98934.31
2022-08-17T12:15:05.798Z,98929.00
2022-08-17T12:17:41.612Z,98926.25
2022-08-17T12:20:15.233Z,98929.72
2022-08-17T12:22:56.613Z,98920.47
2022-08-17T12:25:30.483Z,98924.56
2022-08-17T12:28:05.416Z,98921.59
2022-08-17T12:30:38.855Z,98918.75
2022-08-17T12:33:25.490Z,98917.94
2022-08-17T12:35:59.724Z,98914.72
2022-08-17T12:38:32.375Z,98909.00
2022-08-17T12:41:23.593Z,98905.59
2022-08-17T12:44:02.462Z,98899.59
2022-08-17T12:46:35.908Z,98893.44
2022-08-17T12:49:21.423Z,98899.84
2022-08-17T12:51:50.769Z,98898.00
2022-08-17T12:54:41.851Z,98896.03
2022-08-17T12:57:15.790Z,98897.19
2022-08-17T12:59:48.944Z,98894.69
2022-08-17T13:02:29.491Z,98898.31
2022-08-17T13:05:03.229Z,98898.22
2022-08-17T13:07:37.135Z,98900.66
2022-08-17T13:10:05.994Z,98896.59
2022-08-17T13:12:36.509Z,98902.47
2022-08-17T13:15:05.574Z,98900.81
2022-08-17T13:17:37.185Z,98897.50
2022-08-17T13:20:16.164Z,98888.91
2022-08-17T13:22:45.411Z,98893.84
2022-08-17T13:25:21.988Z,98891.84
2022-08-17T13:27:52.215Z,98896.53
2022-08-17T13:30:27.219Z,98891.78
2022-08-17T13:32:58.736Z,98879.56
2022-08-17T13:35:50.127Z,98876.13
2022-08-17T13:38:45.697Z,98885.34
2022-08-17T13:41:34.710Z,98889.50
2022-08-17T13:44:05.673Z,98880.69
2022-08-17T13:46:39.830Z,98873.63
2022-08-17T13:49:12.920Z,98874.88
2022-08-17T13:51:47.537Z,98875.69
2022-08-17T13:54:28.749Z,98866.91
2022-08-17T13:57:03.567Z,98879.97
2022-08-17T13:59:54.172Z,98866.75
2022-08-17T14:02:28.927Z,98868.22
2022-08-17T14:05:02.185Z,98869.81
2022-08-17T14:07:37.940Z,98869.91
2022-08-17T14:10:11.419Z,98870.13
2022-08-17T14:12:41.723Z,98872.44
2022-08-17T14:15:13.082Z,98870.69
2022-08-17T14:17:41.507Z,98872.38
2022-08-17T14:20:12.273Z,98866.75
2022-08-17T14:22:45.531Z,98875.75
2022-08-17T14:25:15.658Z,98872.25
2022-08-17T14:27:52.723Z,98873.91
2022-08-17T14:30:28.857Z,98863.50
2022-08-17T14:32:58.616Z,98875.59
2022-08-17T14:35:28.005Z,98869.66
2022-08-17T14:38:00.501Z,98866.47
2022-08-17T14:40:30.150Z,98861.44
2022-08-17T14:42:59.419Z,98866.44
2022-08-17T14:45:32.522Z,98849.53
2022-08-17T14:48:12.028Z,98867.00
2022-08-17T14:50:43.083Z,98860.47
2022-08-17T14:53:19.726Z,98863.19
2022-08-17T14:55:51.885Z,98869.56
2022-08-17T14:58:20.381Z,98867.91
2022-08-17T15:00:51.323Z,98866.63
2022-08-17T15:03:19.867Z,98869.03
2022-08-17T15:05:48.758Z,98871.97
2022-08-17T15:08:19.692Z,98868.81
2022-08-17T15:10:50.019Z,98866.31
2022-08-17T15:13:22.086Z,98868.59
2022-08-17T15:15:51.131Z,98861.59
2022-08-17T15:18:20.102Z,98870.88
2022-08-17T15:20:49.275Z,98871.09
2022-08-17T15:23:21.438Z,98864.38
2022-08-17T15:25:50.649Z,98872.41
2022-08-17T15:28:18.861Z,98866.34
2022-08-17T15:30:48.417Z,98865.28
2022-08-17T15:33:17.870Z,98871.91
2022-08-17T15:35:46.128Z,98869.69
2022-08-17T15:38:14.539Z,98862.88
2022-08-17T15:40:46.067Z,98864.50
2022-08-17T15:43:16.252Z,98865.06
2022-08-17T15:45:44.820Z,98867.09
2022-08-17T15:48:41.501Z,98869.31
2022-08-17T15:51:11.521Z,98875.38
2022-08-17T15:53:40.175Z,98867.44
2022-08-17T15:56:09.885Z,98879.97
2022-08-17T15:58:40.219Z,98871.66
2022-08-17T16:01:14.939Z,98875.88
2022-08-17T16:04:04.191Z,98878.72
2022-08-17T16:06:35.247Z,98872.69
2022-08-17T16:09:03.367Z,98868.91
2022-08-17T16:11:32.937Z,98872.47
2022-08-17T16:14:01.053Z,98864.50
2022-08-17T16:16:31.318Z,98855.13
2022-08-17T16:18:59.592Z,98863.69
2022-08-17T16:21:31.124Z,98873.28
2022-08-17T16:24:13.237Z,98867.22
2022-08-17T16:26:45.060Z,98869.41
2022-08-17T16:29:13.532Z,98869.38
2022-08-17T16:31:43.357Z,98876.13
2022-08-17T16:34:17.023Z,98871.19
2022-08-17T16:36:54.869Z,98869.19
2022-08-17T16:39:26.352Z,98862.69
2022-08-17T16:41:56.517Z,98867.50
2022-08-17T16:44:25.910Z,98871.09
2022-08-17T16:46:54.358Z,98867.50
2022-08-17T16:49:35.795Z,98866.31
2022-08-17T16:52:10.323Z,98868.06
2022-08-17T16:54:40.697Z,98868.75
2022-08-17T16:57:10.524Z,98870.19
2022-08-17T16:59:42.608Z,98874.94
2022-08-17T17:02:16.375Z,98866.53
2022-08-17T17:04:50.565Z,98870.50
2022-08-17T17:07:33.915Z,98871.38
2022-08-17T17:10:05.985Z,98871.22
2022-08-17T17:13:02.871Z,98871.22
2022-08-17T17:15:29.837Z,98883.13
2022-08-17T17:18:06.780Z,98873.59
2022-08-17T17:20:41.513Z,98881.16
2022-08-17T17:23:14.771Z,98876.91
2022-08-17T17:25:49.842Z,98880.38
2022-08-17T17:28:24.983Z,98873.31
2022-08-17T17:31:02.070Z,98872.28
2022-08-17T17:33:36.210Z,98868.97
2022-08-17T17:36:09.195Z,98872.94
2022-08-17T17:38:43.108Z,98872.78
2022-08-17T17:41:17.028Z,98876.34
2022-08-17T17:43:49.389Z,98877.00
2022-08-17T17:46:28.580Z,98878.66
2022-08-17T17:48:57.302Z,98881.53
2022-08-17T17:52:06.835Z,98879.63
2022-08-17T17:54:28.464Z,98885.06
2022-08-17T17:57:03.491Z,98878.31
2022-08-17T17:59:43.899Z,98874.31
2022-08-17T18:02:41.025Z,98875.56
2022-08-17T18:05:17.359Z,98874.78
2022-08-17T18:07:50.442Z,98876.50
2022-08-17T18:10:30.214Z,98874.06
2022-08-17T18:13:16.972Z,98883.81
2022-08-17T18:15:51.186Z,98890.63
2022-08-17T18:18:38.025Z,98894.44
2022-08-17T18:21:15.605Z,98897.84
2022-08-17T18:23:54.646Z,98897.09
2022-08-17T18:26:46.879Z,98896.91
2022-08-17T18:29:31.575Z,98907.53
2022-08-17T18:32:18.316Z,98893.84
2022-08-17T18:34:48.849Z,98898.28
2022-08-17T18:37:32.407Z,98904.16
2022-08-17T18:40:00.658Z,98905.91
2022-08-17T18:42:30.253Z,98902.59
2022-08-17T18:44:58.465Z,98902.38
2022-08-17T18:47:29.631Z,98908.47
2022-08-17T18:50:00.570Z,98909.34
2022-08-17T18:52:31.875Z,98911.56
2022-08-17T18:55:04.035Z,98916.78
2022-08-17T18:57:35.447Z,98912.16
2022-08-17T19:00:12.592Z,98915.53
2022-08-17T19:02:54.463Z,98918.31
2022-08-17T19:05:35.589Z,98908.38
2022-08-17T19:08:20.384Z,98912.22
2022-08-17T19:10:50.264Z,98917.75
2022-08-17T19:13:23.852Z,98916.34
2022-08-17T19:16:11.716Z,98922.19
2022-08-17T19:18:48.588Z,98921.34
2022-08-17T19:21:19.838Z,98911.69
2022-08-17T19:23:54.249Z,98915.28
2022-08-17T19:26:50.598Z,98918.59
2022-08-17T19:29:16.877Z,98917.63
2022-08-17T19:31:50.490Z,98922.56
2022-08-17T19:34:33.332Z,98919.59
2022-08-17T19:37:09.207Z,98921.03
2022-08-17T19:39:42.407Z,98924.34
2022-08-17T19:42:15.620Z,98922.00
2022-08-17T19:44:52.948Z,98914.09
2022-08-17T19:47:53.371Z,98908.31
2022-08-17T19:50:38.516Z,98907.19
2022-08-17T19:53:21.546Z,98899.00
2022-08-17T19:55:55.305Z,98891.03
2022-08-17T19:58:34.569Z,98903.38
2022-08-17T20:01:03.177Z,98900.34
2022-08-17T20:03:36.909Z,98891.88
2022-08-17T20:06:13.005Z,98895.13
2022-08-17T20:08:50.199Z,98906.75
2022-08-17T20:11:22.898Z,98901.84
2022-08-17T20:13:56.767Z,98903.19
2022-08-17T20:16:24.972Z,98907.06
2022-08-17T20:18:59.688Z,98908.50
2022-08-17T20:21:37.324Z,98920.03
2022-08-17T20:24:19.009Z,98910.16
2022-08-17T20:26:58.746Z,98909.63
2022-08-17T20:29:39.593Z,98905.50
2022-08-17T20:32:30.563Z,98908.50
2022-08-17T20:35:18.201Z,98915.66
2022-08-17T20:37:55.417Z,98911.28
2022-08-17T20:40:36.351Z,98909.06
2022-08-17T20:43:58.945Z,98911.81
2022-08-17T20:46:35.723Z,98911.81
2022-08-17T20:49:17.149Z,98908.50
2022-08-17T20:52:01.707Z,98902.97
2022-08-17T20:54:46.630Z,98901.09
2022-08-17T20:57:48.964Z,98915.34
2022-08-17T21:00:42.691Z,98914.00
2022-08-17T21:03:50.199Z,98919.19
2022-08-17T21:06:22.657Z,98939.19
2022-08-17T21:08:58.534Z,98944.41
2022-08-17T21:12:04.392Z,98957.81
2022-08-17T21:14:39.835Z,98959.56
2022-08-17T21:17:34.320Z,98959.28
2022-08-17T21:20:11.929Z,98968.94
2022-08-17T21:22:52.555Z,98971.94
2022-08-17T21:25:32.673Z,98973.31
2022-08-17T21:28:08.617Z,98984.19
2022-08-17T21:30:55.936Z,98992.22
2022-08-17T21:33:29.348Z,98992.97
2022-08-17T21:36:25.689Z,98984.09
2022-08-17T21:39:02.097Z,98999.19
2022-08-17T21:41:34.625Z,98985.75
2022-08-17T21:44:07.949Z,98982.72
2022-08-17T21:46:42.916Z,98983.25
2022-08-17T21:49:17.842Z,98980.78
2022-08-17T21:51:50.438Z,98984.63
2022-08-17T21:54:28.833Z,98982.69
2022-08-17T21:56:59.541Z,98980.19
2022-08-17T21:59:32.173Z,98963.97
2022-08-17T22:02:02.682Z,98957.84
2022-08-17T22:04:32.422Z,98956.53
2022-08-17T22:07:02.533Z,98952.19
2022-08-17T22:09:32.830Z,98947.69
2022-08-17T22:12:04.929Z,98951.19
2022-08-17T22:14:52.667Z,98953.13
2022-08-17T22:17:24.625Z,98968.16
2022-08-17T22:19:54.371Z,98969.56
2022-08-17T22:22:28.167Z,98976.69
2022-08-17T22:24:57.992Z,98967.44
2022-08-17T22:27:50.871Z,98961.28
2022-08-17T22:30:36.579Z,98966.25
2022-08-17T22:33:40.366Z,98964.22
2022-08-17T22:36:14.811Z,98957.97
2022-08-17T22:38:43.858Z,98961.94
2022-08-17T22:41:23.806Z,98963.41
2022-08-17T22:43:53.083Z,98960.78
2022-08-17T22:46:23.925Z,98957.66
2022-08-17T22:48:54.398Z,98946.28
2022-08-17T22:51:25.280Z,98959.50
2022-08-17T22:54:13.154Z,98951.94
2022-08-17T22:57:06.298Z,98946.41
2022-08-17T22:59:42.400Z,98939.81
2022-08-17T23:02:15.213Z,98936.53
2022-08-17T23:04:47.784Z,98935.28
2022-08-17T23:07:17.480Z,98933.66
2022-08-17T23:09:45.947Z,98928.56
2022-08-17T23:12:18.022Z,98926.44
2022-08-17T23:14:48.118Z,98924.22
2022-08-17T23:17:18.162Z,98927.66
2022-08-17T23:19:46.277Z,98918.66
2022-08-17T23:22:14.388Z,98914.84
2022-08-17T23:24:49.018Z,98916.44
2022-08-17T23:27:17.594Z,98907.16
2022-08-17T23:29:47.167Z,98903.75
2022-08-17T23:32:17.619Z,98906.47
2022-08-17T23:34:48.264Z,98909.09
2022-08-17T23:37:16.895Z,98909.56
2022-08-17T23:39:45.792Z,98911.56
2022-08-17T23:42:24.397Z,98910.53
2022-08-17T23:44:52.517Z,98906.63
2022-08-17T23:47:22.223Z,98907.59
2022-08-17T23:49:50.357Z,98902.38
2022-08-17T23:52:23.351Z,98904.16
2022-08-17T23:54:51.680Z,98896.69
2022-08-17T23:57:33.450Z,98896.56
